This is the latest recevied weather packets stored in our database for station/object K7VLL. If no packets are shown the sender has not sent any weather packets the latest 10 day(s).
| Time | Temp. | Humidity | Pressure | Rain* | Wind** | Luminosity | Snow |
|---|---|---|---|---|---|---|---|
| 1778007069 | 22.22° C | 45% | 1088.6 hPa | 0 mm | - | 746 W/m² | - |
| 1778005267 | 21.11° C | 47% | 1089 hPa | 0 mm | - | 860 W/m² | - |
| 1778003464 | 21.67° C | 48% | 1089.2 hPa | 0 mm | - | 668 W/m² | - |
| 1778001662 | 20° C | 54% | 1089.5 hPa | 0 mm | - | 736 W/m² | - |
| 1777999862 | 18.89° C | 57% | 1089.4 hPa | 0 mm | - | 196 W/m² | - |
| 1777998058 | 17.78° C | 63% | 1089.4 hPa | 0 mm | - | 394 W/m² | - |
| 1777996256 | 16.11° C | 75% | 1089.5 hPa | 0 mm | - | 111 W/m² | - |
| 1777994453 | 15.56° C | 86% | 1089.3 hPa | 0 mm | - | 97 W/m² | - |
| 1777992650 | 14.44° C | 89% | 1089.2 hPa | 0 mm | - | 52 W/m² | - |
| 1777990850 | 13.89° C | 93% | 1089 hPa | 0 mm | - | 76 W/m² | - |
| 1777989048 | 13.89° C | 94% | 1088.9 hPa | 0 mm | - | 21 W/m² | - |
| 1777987246 | 13.89° C | 94% | 1088.6 hPa | 0 mm | - | 21 W/m² | - |
| 1777985441 | 13.89° C | 94% | 1088.1 hPa | 0 mm | - | 5 W/m² | - |
| 1777983638 | 13.89° C | 94% | 1088 hPa | 0 mm | - | 0 W/m² | - |
| 1777981834 | 13.89° C | 93% | 1087.8 hPa | 0 mm | - | 0 W/m² | - |
| 1777980032 | 13.89° C | 93% | 1088 hPa | 0 mm | - | 0 W/m² | - |
| 1777978231 | 13.89° C | 93% | 1088.3 hPa | 0 mm | - | 0 W/m² | - |
| 1777976427 | 13.89° C | 93% | 1088.1 hPa | 0 mm | - | 0 W/m² | - |
| 1777974625 | 13.89° C | 93% | 1089 hPa | 0 mm | - | 0 W/m² | - |
| 1777972825 | 13.89° C | 93% | 1088.9 hPa | 0 mm | - | 0 W/m² | - |
| 1777971022 | 13.89° C | 92% | 1089.2 hPa | 0 mm | - | 0 W/m² | - |
| 1777969221 | 13.89° C | 92% | 1090.1 hPa | 1.78 mm | - | 0 W/m² | - |
| 1777967418 | 13.89° C | 92% | 1090.9 hPa | 1.78 mm | - | 0 W/m² | - |
| 1777965617 | 14.44° C | 92% | 1091.2 hPa | 4.83 mm | - | 0 W/m² | - |
| 1777963814 | 13.89° C | 91% | 1091.3 hPa | 1.78 mm | - | 0 W/m² | - |
* Rain latest hour (hover to see other rain measurements)
** Current wind speed in m/s (hover to see current wind gust speed)